createdAt,value
2022-08-14T00:02:06.039Z,100507.14
2022-08-14T00:04:48.312Z,100504.78
2022-08-14T00:07:30.310Z,100501.30
2022-08-14T00:10:53.031Z,100500.25
2022-08-14T00:13:21.685Z,100503.03
2022-08-14T00:16:04.158Z,100504.54
2022-08-14T00:18:49.739Z,100503.82
2022-08-14T00:21:51.001Z,100502.61
2022-08-14T00:24:32.987Z,100497.36
2022-08-14T00:27:17.135Z,100492.56
2022-08-14T00:30:00.277Z,100487.40
2022-08-14T00:32:51.947Z,100481.61
2022-08-14T00:36:36.496Z,100479.64
2022-08-14T00:38:37.590Z,100472.42
2022-08-14T00:41:19.588Z,100472.79
2022-08-14T00:44:02.507Z,100472.34
2022-08-14T00:46:49.626Z,100472.96
2022-08-14T00:49:38.185Z,100473.61
2022-08-14T00:52:26.115Z,100474.83
2022-08-14T00:55:10.092Z,100469.57
2022-08-14T00:58:14.277Z,100465.48
2022-08-14T01:00:57.737Z,100467.56
2022-08-14T01:03:42.421Z,100468.44
2022-08-14T01:06:30.369Z,100470.43
2022-08-14T01:09:16.708Z,100472.25
2022-08-14T01:12:02.658Z,100468.89
2022-08-14T01:14:45.769Z,100463.27
2022-08-14T01:17:50.628Z,100461.14
2022-08-14T01:20:53.034Z,100459.97
2022-08-14T01:23:46.826Z,100462.54
2022-08-14T01:26:35.200Z,100464.48
2022-08-14T01:29:43.167Z,100461.56
2022-08-14T01:32:24.343Z,100455.98
2022-08-14T01:35:20.849Z,100456.45
2022-08-14T01:38:15.374Z,100458.66
2022-08-14T01:40:58.906Z,100462.76
2022-08-14T01:43:56.677Z,100461.41
2022-08-14T01:46:47.376Z,100463.66
2022-08-14T01:49:46.271Z,100462.24
2022-08-14T01:52:59.977Z,100459.80
2022-08-14T01:55:44.625Z,100458.45
2022-08-14T01:58:29.861Z,100455.45
2022-08-14T02:01:16.102Z,100459.05
2022-08-14T02:03:59.495Z,100459.86
2022-08-14T02:06:42.291Z,100453.98
2022-08-14T02:09:24.904Z,100454.47
2022-08-14T02:12:09.141Z,100458.02
2022-08-14T02:15:01.429Z,100454.43
2022-08-14T02:17:43.903Z,100444.38
2022-08-14T02:20:26.121Z,100441.56
2022-08-14T02:23:09.048Z,100440.21
2022-08-14T02:25:54.551Z,100441.63
2022-08-14T02:28:58.381Z,100439.79
2022-08-14T02:31:44.062Z,100441.06
2022-08-14T02:34:29.489Z,100438.41
2022-08-14T02:37:12.917Z,100437.64
2022-08-14T02:39:57.766Z,100433.60
2022-08-14T02:42:40.491Z,100436.17
2022-08-14T02:45:38.361Z,100435.41
2022-08-14T02:49:00.958Z,100437.41
2022-08-14T02:51:36.386Z,100437.67
2022-08-14T02:54:20.101Z,100434.52
2022-08-14T02:57:14.049Z,100436.90
2022-08-14T02:59:59.553Z,100442.11
2022-08-14T03:02:56.342Z,100442.16
2022-08-14T03:05:41.810Z,100437.95
2022-08-14T03:08:32.020Z,100443.78
2022-08-14T03:11:14.477Z,100439.27
2022-08-14T03:13:59.561Z,100437.25
2022-08-14T03:16:41.954Z,100438.91
2022-08-14T03:19:23.849Z,100439.61
2022-08-14T03:22:09.207Z,100436.32
2022-08-14T03:24:51.837Z,100437.44
2022-08-14T03:27:35.524Z,100431.93
2022-08-14T03:30:37.084Z,100429.19
2022-08-14T03:33:22.103Z,100428.63
2022-08-14T03:37:51.592Z,100427.60
2022-08-14T03:39:22.017Z,100425.40
2022-08-14T03:42:05.168Z,100418.33
2022-08-14T03:45:19.412Z,100415.97
2022-08-14T03:48:26.735Z,100418.52
2022-08-14T03:51:14.298Z,100415.62
2022-08-14T03:53:58.744Z,100414.08
2022-08-14T03:56:44.994Z,100413.77
2022-08-14T03:59:28.479Z,100410.25
2022-08-14T04:02:33.408Z,100408.01
2022-08-14T04:05:16.370Z,100405.20
2022-08-14T04:08:08.432Z,100399.59
2022-08-14T04:11:07.845Z,100400.17
2022-08-14T04:13:52.282Z,100397.92
2022-08-14T04:16:34.586Z,100398.80
2022-08-14T04:19:20.653Z,100401.13
2022-08-14T04:22:04.376Z,100399.58
2022-08-14T04:24:46.518Z,100395.36
2022-08-14T04:27:31.589Z,100394.80
2022-08-14T04:30:39.494Z,100396.91
2022-08-14T04:33:25.272Z,100396.58
2022-08-14T04:36:09.289Z,100399.30
2022-08-14T04:39:17.160Z,100400.05
2022-08-14T04:42:18.007Z,100402.80
2022-08-14T04:45:01.287Z,100407.22
2022-08-14T04:48:03.380Z,100409.11
2022-08-14T04:50:54.007Z,100409.27
2022-08-14T04:53:42.872Z,100407.00
2022-08-14T04:56:31.507Z,100405.60
2022-08-14T04:59:16.043Z,100404.45
2022-08-14T05:01:58.597Z,100401.67
2022-08-14T05:04:45.464Z,100403.36
2022-08-14T05:07:54.180Z,100396.73
2022-08-14T05:10:46.250Z,100398.70
2022-08-14T05:13:53.217Z,100395.20
2022-08-14T05:16:36.740Z,100394.61
2022-08-14T05:19:27.167Z,100399.35
2022-08-14T05:22:15.702Z,100396.91
2022-08-14T05:25:00.142Z,100395.39
2022-08-14T05:27:42.755Z,100392.71
2022-08-14T05:30:24.691Z,100392.40
2022-08-14T05:33:07.777Z,100394.04
2022-08-14T05:35:49.671Z,100393.45
2022-08-14T05:38:42.162Z,100392.45
2022-08-14T05:41:27.729Z,100387.73
2022-08-14T05:44:30.681Z,100380.55
2022-08-14T05:47:15.353Z,100377.73
2022-08-14T05:49:58.779Z,100375.88
2022-08-14T05:52:40.841Z,100376.38
2022-08-14T05:55:23.365Z,100377.89
2022-08-14T05:58:08.726Z,100371.17
2022-08-14T06:00:52.403Z,100367.19
2022-08-14T06:03:35.735Z,100369.41
2022-08-14T06:06:18.857Z,100367.98
2022-08-14T06:09:00.752Z,100362.02
2022-08-14T06:11:43.198Z,100364.98
2022-08-14T06:14:25.103Z,100365.66
2022-08-14T06:17:08.591Z,100357.88
2022-08-14T06:19:50.588Z,100350.73
2022-08-14T06:22:32.383Z,100349.48
2022-08-14T06:25:19.551Z,100354.81
2022-08-14T06:28:02.087Z,100359.28
2022-08-14T06:30:47.434Z,100364.40
2022-08-14T06:35:01.437Z,100359.23
2022-08-14T06:36:31.764Z,100356.61
2022-08-14T06:39:13.658Z,100359.57
2022-08-14T06:41:59.992Z,100358.29
2022-08-14T06:44:42.568Z,100354.52
2022-08-14T06:47:24.669Z,100353.48
2022-08-14T06:50:12.507Z,100356.88
2022-08-14T06:52:55.526Z,100351.99
2022-08-14T06:55:40.787Z,100355.13
2022-08-14T06:58:40.105Z,100355.48
2022-08-14T07:01:40.839Z,100350.55
2022-08-14T07:04:41.887Z,100350.29
2022-08-14T07:07:24.499Z,100347.45
2022-08-14T07:10:16.849Z,100343.58
2022-08-14T07:13:03.606Z,100340.20
2022-08-14T07:15:50.917Z,100337.06
2022-08-14T07:18:37.494Z,100331.58
2022-08-14T07:21:22.854Z,100335.96
2022-08-14T07:24:04.960Z,100338.86
2022-08-14T07:26:51.562Z,100335.30
2022-08-14T07:29:33.560Z,100334.46
2022-08-14T07:32:20.069Z,100329.70
2022-08-14T07:35:04.570Z,100331.48
2022-08-14T07:37:49.127Z,100330.52
2022-08-14T07:40:35.367Z,100332.08
2022-08-14T07:43:18.092Z,100326.23
2022-08-14T07:46:04.748Z,100329.46
2022-08-14T07:48:48.847Z,100325.48
2022-08-14T07:51:37.129Z,100325.13
2022-08-14T07:54:22.927Z,100323.33
2022-08-14T07:57:24.804Z,100321.76
2022-08-14T08:00:29.936Z,100319.30
2022-08-14T08:03:15.130Z,100312.95
2022-08-14T08:05:57.977Z,100311.59
2022-08-14T08:08:40.589Z,100309.85
2022-08-14T08:11:22.996Z,100306.88
2022-08-14T08:14:16.329Z,100298.42
2022-08-14T08:17:00.304Z,100292.56
2022-08-14T08:19:42.098Z,100293.98
2022-08-14T08:22:32.547Z,100297.59
2022-08-14T08:25:18.163Z,100292.73
2022-08-14T08:28:09.049Z,100288.34
2022-08-14T08:31:08.269Z,100278.34
2022-08-14T08:33:54.587Z,100278.09
2022-08-14T08:36:46.783Z,100276.08
2022-08-14T08:39:30.846Z,100274.34
2022-08-14T08:42:41.233Z,100276.66
2022-08-14T08:45:27.957Z,100278.23
2022-08-14T08:48:20.692Z,100275.95
2022-08-14T08:51:34.495Z,100274.34
2022-08-14T08:54:19.899Z,100278.21
2022-08-14T08:57:04.812Z,100266.98
2022-08-14T08:59:54.951Z,100263.61
2022-08-14T09:02:38.921Z,100263.64
2022-08-14T09:05:25.449Z,100256.83
2022-08-14T09:08:26.654Z,100254.66
2022-08-14T09:11:19.909Z,100244.71
2022-08-14T09:14:05.539Z,100237.85
2022-08-14T09:16:51.702Z,100233.84
2022-08-14T09:19:37.283Z,100231.27
2022-08-14T09:22:47.653Z,100230.52
2022-08-14T09:25:29.793Z,100228.39
2022-08-14T09:28:27.146Z,100230.46
2022-08-14T09:31:17.370Z,100229.34
2022-08-14T09:34:26.910Z,100225.83
2022-08-14T09:37:29.471Z,100225.80
2022-08-14T09:40:40.445Z,100232.51
2022-08-14T09:43:25.101Z,100224.38
2022-08-14T09:46:25.738Z,100219.27
2022-08-14T09:49:39.959Z,100215.70
2022-08-14T09:52:34.236Z,100217.48
2022-08-14T09:55:24.489Z,100211.43
2022-08-14T09:58:19.476Z,100211.41
2022-08-14T10:01:15.143Z,100206.76
2022-08-14T10:03:59.745Z,100203.67
2022-08-14T10:06:46.179Z,100203.67
2022-08-14T10:09:33.462Z,100198.04
2022-08-14T10:12:28.584Z,100198.21
2022-08-14T10:15:27.831Z,100193.17
2022-08-14T10:18:18.225Z,100188.42
2022-08-14T10:21:09.571Z,100186.74
2022-08-14T10:23:52.788Z,100182.94
2022-08-14T10:26:36.791Z,100181.13
2022-08-14T10:29:23.460Z,100175.80
2022-08-14T10:32:17.897Z,100174.02
2022-08-14T10:35:14.432Z,100174.61
2022-08-14T10:38:00.874Z,100173.77
2022-08-14T10:40:52.073Z,100173.98
2022-08-14T10:44:05.282Z,100169.57
2022-08-14T10:47:40.162Z,100173.00
2022-08-14T10:50:14.966Z,100172.22
2022-08-14T10:52:59.966Z,100171.98
2022-08-14T10:55:45.688Z,100173.02
2022-08-14T10:58:32.990Z,100179.92
2022-08-14T11:01:16.944Z,100182.75
2022-08-14T11:03:59.284Z,100184.20
2022-08-14T11:06:52.670Z,100176.42
2022-08-14T11:09:34.774Z,100171.91
2022-08-14T11:12:33.705Z,100173.53
2022-08-14T11:15:27.779Z,100169.52
2022-08-14T11:18:20.428Z,100170.26
2022-08-14T11:21:21.468Z,100170.79
2022-08-14T11:24:54.270Z,100165.47
2022-08-14T11:27:16.616Z,100155.98
2022-08-14T11:30:49.803Z,100152.73
2022-08-14T11:33:13.454Z,100145.70
2022-08-14T11:36:02.062Z,100142.52
2022-08-14T11:38:46.510Z,100134.47
2022-08-14T11:41:29.286Z,100129.20
2022-08-14T11:44:45.066Z,100131.39
2022-08-14T11:47:21.443Z,100128.52
2022-08-14T11:50:33.976Z,100126.29
2022-08-14T11:53:32.304Z,100120.23
2022-08-14T11:56:14.312Z,100104.71
2022-08-14T11:59:00.326Z,100113.73
2022-08-14T12:01:42.911Z,100116.39
2022-08-14T12:04:32.151Z,100111.77
2022-08-14T12:07:15.516Z,100110.75
2022-08-14T12:09:59.480Z,100114.23
2022-08-14T12:12:42.328Z,100115.45
2022-08-14T12:15:44.854Z,100114.98
2022-08-14T12:18:39.496Z,100122.27
2022-08-14T12:21:25.533Z,100129.23
2022-08-14T12:24:10.115Z,100127.70
2022-08-14T12:27:13.430Z,100128.30
2022-08-14T12:30:00.221Z,100123.37
2022-08-14T12:32:48.648Z,100123.60
2022-08-14T12:35:40.177Z,100117.27
2022-08-14T12:38:43.660Z,100119.92
2022-08-14T12:41:37.032Z,100114.06
2022-08-14T12:44:30.509Z,100108.16
2022-08-14T12:47:17.250Z,100103.55
2022-08-14T12:50:00.147Z,100100.75
2022-08-14T12:53:01.901Z,100097.63
2022-08-14T12:56:18.304Z,100092.20
2022-08-14T12:59:02.294Z,100079.52
2022-08-14T13:02:01.783Z,100073.45
2022-08-14T13:04:49.389Z,100066.14
2022-08-14T13:07:33.248Z,100065.33
2022-08-14T13:10:47.757Z,100062.62
2022-08-14T13:13:19.438Z,100062.94
2022-08-14T13:16:02.986Z,100058.16
2022-08-14T13:19:03.616Z,100058.33
2022-08-14T13:22:05.889Z,100055.89
2022-08-14T13:24:50.652Z,100046.58
2022-08-14T13:27:39.200Z,100043.39
2022-08-14T13:30:25.022Z,100044.29
2022-08-14T13:33:07.604Z,100036.73
2022-08-14T13:35:57.231Z,100027.45
2022-08-14T13:38:43.702Z,100025.95
2022-08-14T13:41:34.700Z,100024.58
2022-08-14T13:44:24.090Z,100019.77
2022-08-14T13:47:08.905Z,100015.06
2022-08-14T13:49:57.793Z,100017.69
2022-08-14T13:52:54.767Z,100012.50
2022-08-14T13:55:37.963Z,100016.77
2022-08-14T13:58:34.101Z,100008.08
2022-08-14T14:01:18.888Z,100009.95
2022-08-14T14:04:04.669Z,100009.77
2022-08-14T14:06:52.829Z,100000.51
2022-08-14T14:09:52.686Z,99997.20
2022-08-14T14:12:41.530Z,99987.55
2022-08-14T14:15:33.898Z,99983.75
2022-08-14T14:18:34.028Z,99983.21
2022-08-14T14:21:18.793Z,99979.81
2022-08-14T14:24:06.329Z,99981.29
2022-08-14T14:26:50.519Z,99981.32
2022-08-14T14:29:33.795Z,99982.50
2022-08-14T14:32:32.058Z,99973.95
2022-08-14T14:35:18.069Z,99969.95
2022-08-14T14:38:00.519Z,99966.42
2022-08-14T14:40:53.669Z,99965.92
2022-08-14T14:43:47.207Z,99965.96
2022-08-14T14:46:37.165Z,99965.33
2022-08-14T14:49:21.848Z,99964.24
2022-08-14T14:52:05.612Z,99964.64
2022-08-14T14:54:48.814Z,99964.92
2022-08-14T14:57:35.033Z,99954.25
2022-08-14T15:00:20.334Z,99952.33
2022-08-14T15:03:03.335Z,99951.51
2022-08-14T15:05:46.128Z,99947.71
2022-08-14T15:08:55.812Z,99948.73
2022-08-14T15:11:32.960Z,99945.98
2022-08-14T15:14:54.665Z,99943.90
2022-08-14T15:17:17.434Z,99938.55
2022-08-14T15:19:59.637Z,99942.38
2022-08-14T15:22:43.595Z,99946.26
2022-08-14T15:25:33.566Z,99947.22
2022-08-14T15:28:21.176Z,99950.63
2022-08-14T15:31:05.989Z,99954.77
2022-08-14T15:34:43.850Z,99952.26
2022-08-14T15:37:22.896Z,99950.41
2022-08-14T15:40:10.131Z,99949.13
2022-08-14T15:43:09.036Z,99945.22
2022-08-14T15:45:51.727Z,99948.65
2022-08-14T15:48:35.987Z,99951.82
2022-08-14T15:51:28.245Z,99949.55
2022-08-14T15:54:13.267Z,99943.90
2022-08-14T15:57:04.678Z,99936.52
2022-08-14T16:00:04.736Z,99934.81
2022-08-14T16:02:54.953Z,99934.88
2022-08-14T16:05:38.483Z,99933.89
2022-08-14T16:08:26.619Z,99929.33
2022-08-14T16:11:12.891Z,99931.55
2022-08-14T16:13:57.474Z,99928.42
2022-08-14T16:16:51.025Z,99928.50
2022-08-14T16:22:58.694Z,99926.33
2022-08-14T16:25:47.444Z,99922.58
2022-08-14T16:28:37.255Z,99925.38
2022-08-14T16:31:26.513Z,99928.98
2022-08-14T16:34:46.139Z,99932.27
2022-08-14T16:37:21.600Z,99934.39
2022-08-14T16:40:07.514Z,99932.23
2022-08-14T16:40:23.909Z,99927.96
2022-08-14T16:43:03.909Z,99930.64
2022-08-14T16:45:57.063Z,99924.16
2022-08-14T16:48:55.105Z,99926.60
2022-08-14T16:51:41.720Z,99925.90
2022-08-14T16:54:35.387Z,99931.13
2022-08-14T16:57:35.261Z,99929.75
2022-08-14T17:00:28.810Z,99928.16
2022-08-14T17:03:13.095Z,99926.72
2022-08-14T17:05:55.973Z,99926.81
2022-08-14T17:08:46.234Z,99929.21
2022-08-14T17:11:31.634Z,99933.47
2022-08-14T17:14:14.761Z,99931.92
2022-08-14T17:16:59.433Z,99933.94
2022-08-14T17:19:42.038Z,99933.11
2022-08-14T17:22:47.992Z,99936.91
2022-08-14T17:25:37.287Z,99941.46
2022-08-14T17:28:51.504Z,99940.11
2022-08-14T17:31:58.718Z,99933.92
2022-08-14T17:34:53.122Z,99931.11
2022-08-14T17:37:38.138Z,99932.23
2022-08-14T17:40:26.150Z,99927.30
2022-08-14T17:43:09.360Z,99932.02
2022-08-14T17:45:51.866Z,99933.16
2022-08-14T17:49:10.546Z,99933.92
2022-08-14T17:51:58.946Z,99927.39
2022-08-14T17:54:44.611Z,99932.70
2022-08-14T17:57:28.366Z,99934.11
2022-08-14T18:00:14.774Z,99939.34
2022-08-14T18:02:58.099Z,99939.13
2022-08-14T18:06:07.620Z,99946.95
2022-08-14T18:08:47.803Z,99955.33
2022-08-14T18:11:46.242Z,99954.78
2022-08-14T18:14:33.088Z,99950.13
2022-08-14T18:17:31.066Z,99949.49
2022-08-14T18:21:23.031Z,99948.55
2022-08-14T18:23:18.924Z,99952.95
2022-08-14T18:26:05.329Z,99955.98
2022-08-14T18:28:51.414Z,99956.64
2022-08-14T18:31:42.157Z,99961.90
2022-08-14T18:34:38.228Z,99963.09
2022-08-14T18:37:33.971Z,99968.66
2022-08-14T18:40:15.805Z,99970.45
2022-08-14T18:43:03.526Z,99969.73
2022-08-14T18:46:00.929Z,99966.81
2022-08-14T18:48:51.093Z,99964.98
2022-08-14T18:51:46.155Z,99966.43
2022-08-14T18:54:34.386Z,99971.06
2022-08-14T18:57:20.180Z,99970.70
2022-08-14T19:00:40.272Z,99974.39
2022-08-14T19:03:37.136Z,99977.18
2022-08-14T19:06:19.525Z,99977.71
2022-08-14T19:09:04.084Z,99974.71
2022-08-14T19:11:50.481Z,99971.08
2022-08-14T19:14:50.710Z,99968.58
2022-08-14T19:18:14.266Z,99966.21
2022-08-14T19:20:52.778Z,99966.42
2022-08-14T19:23:42.157Z,99970.96
2022-08-14T19:26:36.040Z,99968.30
2022-08-14T19:29:38.338Z,99966.33
2022-08-14T19:32:41.067Z,99962.73
2022-08-14T19:35:49.048Z,99960.88
2022-08-14T19:38:53.968Z,99959.66
2022-08-14T19:41:38.029Z,99958.58
2022-08-14T19:44:31.750Z,99950.70
2022-08-14T19:47:15.200Z,99952.41
2022-08-14T19:50:08.358Z,99949.70
2022-08-14T19:53:16.602Z,99946.84
2022-08-14T19:56:04.912Z,99945.02
2022-08-14T19:58:54.942Z,99941.45
2022-08-14T20:01:40.414Z,99944.30
2022-08-14T20:04:45.962Z,99942.36
2022-08-14T20:07:59.092Z,99943.88
2022-08-14T20:11:08.194Z,99943.69
2022-08-14T20:13:40.980Z,99942.95
2022-08-14T20:16:31.881Z,99940.81
2022-08-14T20:19:17.819Z,99935.96
2022-08-14T20:22:04.849Z,99936.16
2022-08-14T20:25:16.649Z,99932.52
2022-08-14T20:27:59.401Z,99930.17
2022-08-14T20:30:41.725Z,99923.69
2022-08-14T20:33:24.664Z,99923.19
2022-08-14T20:36:25.930Z,99928.45
2022-08-14T20:39:15.763Z,99922.10
2022-08-14T20:42:19.008Z,99916.95
2022-08-14T20:45:21.362Z,99916.41
2022-08-14T20:48:09.139Z,99914.13
2022-08-14T20:50:52.091Z,99911.23
2022-08-14T20:53:36.179Z,99914.19
2022-08-14T20:56:30.333Z,99915.56
2022-08-14T20:59:19.185Z,99922.35
2022-08-14T21:02:29.513Z,99927.86
2022-08-14T21:05:16.122Z,99923.88
2022-08-14T21:08:08.502Z,99926.38
2022-08-14T21:11:03.018Z,99926.79
2022-08-14T21:14:20.944Z,99925.24
2022-08-14T21:16:58.058Z,99918.05
2022-08-14T21:19:40.720Z,99922.14
2022-08-14T21:22:25.546Z,99925.23
2022-08-14T21:25:10.869Z,99924.39
2022-08-14T21:27:56.650Z,99933.34
2022-08-14T21:30:47.087Z,99928.58
2022-08-14T21:33:35.788Z,99935.30
2022-08-14T21:36:21.988Z,99936.48
2022-08-14T21:39:04.404Z,99934.43
2022-08-14T21:41:50.246Z,99940.17
2022-08-14T21:44:43.463Z,99938.88
2022-08-14T21:47:26.270Z,99938.15
2022-08-14T21:50:56.504Z,99935.64
2022-08-14T21:53:14.560Z,99936.21
2022-08-14T21:55:57.457Z,99935.92
2022-08-14T21:58:52.785Z,99939.75
2022-08-14T22:02:01.331Z,99946.41
2022-08-14T22:04:41.348Z,99945.56
2022-08-14T22:07:29.234Z,99943.70
2022-08-14T22:10:14.289Z,99943.08
2022-08-14T22:13:05.440Z,99934.18
2022-08-14T22:15:50.132Z,99933.71
2022-08-14T22:18:34.473Z,99934.98
2022-08-14T22:21:19.645Z,99930.10
2022-08-14T22:24:01.746Z,99927.47
2022-08-14T22:26:52.656Z,99921.50
2022-08-14T22:29:35.499Z,99921.62
2022-08-14T22:32:18.798Z,99922.09
2022-08-14T22:35:09.176Z,99917.49
2022-08-14T22:38:01.485Z,99919.39
2022-08-14T22:41:18.219Z,99916.27
2022-08-14T22:44:01.040Z,99906.63
2022-08-14T22:46:45.311Z,99905.86
2022-08-14T22:50:31.938Z,99903.02
2022-08-14T22:52:33.242Z,99903.98
2022-08-14T22:55:16.140Z,99900.27
2022-08-14T22:57:59.416Z,99899.55
2022-08-14T23:00:42.032Z,99897.40
2022-08-14T23:03:25.261Z,99891.39
2022-08-14T23:07:02.123Z,99892.90
2022-08-14T23:09:36.137Z,99890.30
2022-08-14T23:12:28.273Z,99892.78
2022-08-14T23:15:13.457Z,99892.11
2022-08-14T23:17:55.769Z,99898.55
2022-08-14T23:20:39.736Z,99895.42
2022-08-14T23:23:23.027Z,99894.17
2022-08-14T23:26:47.992Z,99888.42
2022-08-14T23:29:11.565Z,99883.34
2022-08-14T23:31:57.015Z,99876.88
2022-08-14T23:34:47.821Z,99875.51
2022-08-14T23:37:33.586Z,99875.98
2022-08-14T23:40:26.359Z,99873.02
2022-08-14T23:43:14.798Z,99870.19
2022-08-14T23:45:57.878Z,99872.13
2022-08-14T23:48:40.826Z,99874.19
2022-08-14T23:51:28.661Z,99877.30
2022-08-14T23:54:48.944Z,99876.57
2022-08-14T23:57:20.511Z,99874.82
